Time;durP1;ratioP1;P1;durP2;ratioP2;P2;SDS_P1;SDS_P2;PMS_P1;PMS_P2;Temp;Humidity;BMP_temperature;BMP_pressure;BME280_temperature;BME280_humidity;BME280_pressure;Samples;Min_cycle;Max_cycle;Signal;HPM_P1;HPM_P2
2023/10/14 05:00:33;;;;;;;11.83;7.17;;;;;;;;;;6133242;23;20486;-95
2023/10/14 05:03:00;;;;;;;19.97;7.33;;;;;;;;;;4955065;29;20491;-70
2023/10/14 05:05:32;;;;;;;12.80;7.80;;;;;;;;;;4956761;29;20432;-70
2023/10/14 05:07:59;;;;;;;11.23;6.90;;;;;;;;;;4956173;29;20409;-70
2023/10/14 05:10:31;;;;;;;16.60;7.43;;;;;;;;;;4956880;29;20890;-70
2023/10/14 05:12:57;;;;;;;13.23;8.47;;;;;;;;;;4956451;29;20447;-69
2023/10/14 05:15:27;;;;;;;19.13;8.43;;;;;;;;;;5009713;23;20529;-75
2023/10/14 05:18:00;;;;;;;13.87;7.93;;;;;;;;;;5014682;28;20481;-75
2023/10/14 05:23:11;;;;;;;17.60;7.40;;;;;;;;;;5015084;28;20830;-75
2023/10/14 05:25:39;;;;;;;13.80;7.27;;;;;;;;;;5000981;28;20509;-75
2023/10/14 05:28:06;;;;;;;15.67;8.23;;;;;;;;;;4994790;28;20465;-74
2023/10/14 05:30:34;;;;;;;13.03;7.80;;;;;;;;;;4995158;28;20434;-75
2023/10/14 05:33:13;;;;;;;13.10;7.83;;;;;;;;;;4995041;28;20924;-74
2023/10/14 05:35:40;;;;;;;21.47;9.10;;;;;;;;;;4994553;28;20489;-74
2023/10/14 05:38:10;;;;;;;20.90;9.97;;;;;;;;;;4994647;28;20403;-74
2023/10/14 05:40:37;;;;;;;17.27;8.40;;;;;;;;;;4994732;28;20490;-74
2023/10/14 05:43:06;;;;;;;16.10;9.40;;;;;;;;;;4994717;28;20414;-75
2023/10/14 05:45:34;;;;;;;13.00;7.40;;;;;;;;;;4994606;28;20484;-75
2023/10/14 05:48:00;;;;;;;16.20;9.80;;;;;;;;;;4994368;28;20411;-73
2023/10/14 05:50:26;;;;;;;13.40;7.70;;;;;;;;;;4994317;28;20431;-74
2023/10/14 05:52:52;;;;;;;18.67;7.87;;;;;;;;;;4994461;28;20761;-73
2023/10/14 05:55:20;;;;;;;15.80;7.87;;;;;;;;;;4994508;28;20438;-73
2023/10/14 05:57:47;;;;;;;13.97;8.33;;;;;;;;;;4994190;28;20473;-73
2023/10/14 06:00:23;;;;;;;14.40;7.30;;;;;;;;;;4994290;28;20423;-73
2023/10/14 06:02:56;;;;;;;19.40;7.60;;;;;;;;;;4994277;28;20406;-75
2023/10/14 06:05:23;;;;;;;18.53;8.33;;;;;;;;;;4994238;28;20438;-72
2023/10/14 06:07:49;;;;;;;11.07;6.27;;;;;;;;;;4993868;28;21143;-73
2023/10/14 06:10:20;;;;;;;13.17;6.77;;;;;;;;;;4976979;28;20415;-73
2023/10/14 06:12:47;;;;;;;16.00;7.97;;;;;;;;;;4994205;28;20473;-73
2023/10/14 06:15:17;;;;;;;17.03;6.67;;;;;;;;;;4993681;28;20450;-73
2023/10/14 06:17:43;;;;;;;15.90;6.57;;;;;;;;;;4993743;28;20415;-73
2023/10/14 06:20:13;;;;;;;18.20;6.33;;;;;;;;;;4993712;28;20501;-73
2023/10/14 06:22:39;;;;;;;11.13;6.03;;;;;;;;;;4994144;28;20498;-73
2023/10/14 06:25:06;;;;;;;11.47;6.03;;;;;;;;;;4993837;28;20430;-73
2023/10/14 06:27:32;;;;;;;10.53;5.57;;;;;;;;;;4993703;28;20800;-73
2023/10/14 06:29:58;;;;;;;9.23;6.00;;;;;;;;;;4993854;28;20407;-73
2023/10/14 06:32:24;;;;;;;18.47;7.70;;;;;;;;;;4993655;28;20411;-73
2023/10/14 06:34:59;;;;;;;11.57;6.10;;;;;;;;;;4993653;28;20859;-73
2023/10/14 06:37:25;;;;;;;12.97;6.43;;;;;;;;;;4993669;28;20402;-73
2023/10/14 06:39:52;;;;;;;15.13;6.73;;;;;;;;;;4993654;28;20399;-73
2023/10/14 06:42:21;;;;;;;9.67;6.03;;;;;;;;;;4993461;28;20463;-73
2023/10/14 06:44:48;;;;;;;12.50;5.87;;;;;;;;;;4993444;28;20525;-72
2023/10/14 06:47:14;;;;;;;19.90;6.60;;;;;;;;;;4993260;28;20474;-73
2023/10/14 06:49:41;;;;;;;13.83;6.30;;;;;;;;;;4993215;28;20422;-74
2023/10/14 06:52:11;;;;;;;10.10;5.50;;;;;;;;;;4993233;28;20498;-73
2023/10/14 06:54:37;;;;;;;12.33;5.47;;;;;;;;;;4992962;28;20423;-73
2023/10/14 06:57:07;;;;;;;13.10;5.57;;;;;;;;;;4993172;28;20966;-73
2023/10/14 06:59:35;;;;;;;9.70;6.17;;;;;;;;;;4993071;28;20419;-73
2023/10/14 07:02:01;;;;;;;11.30;5.30;;;;;;;;;;4993355;28;20468;-73
2023/10/14 07:04:27;;;;;;;11.80;5.30;;;;;;;;;;4993131;28;20513;-73
2023/10/14 07:06:58;;;;;;;10.23;5.00;;;;;;;;;;4993222;28;20407;-73
2023/10/14 07:09:27;;;;;;;10.70;5.37;;;;;;;;;;4993710;28;20418;-73
2023/10/14 07:11:57;;;;;;;12.40;5.77;;;;;;;;;;4975735;28;20426;-73
2023/10/14 07:14:23;;;;;;;10.90;4.60;;;;;;;;;;4992660;28;20524;-73
2023/10/14 07:16:50;;;;;;;14.10;5.07;;;;;;;;;;4993096;28;20438;-73
2023/10/14 07:19:17;;;;;;;9.33;5.10;;;;;;;;;;4993186;28;20920;-73
2023/10/14 07:21:43;;;;;;;8.63;4.77;;;;;;;;;;4993156;28;20454;-73
2023/10/14 07:24:10;;;;;;;8.27;3.83;;;;;;;;;;4992623;28;20430;-73
2023/10/14 07:26:39;;;;;;;8.93;4.97;;;;;;;;;;4992675;28;20407;-73
2023/10/14 07:29:06;;;;;;;8.93;4.50;;;;;;;;;;4992389;28;20431;-74
2023/10/14 07:31:32;;;;;;;9.90;4.67;;;;;;;;;;4993525;28;20419;-73
2023/10/14 07:34:02;;;;;;;16.03;4.57;;;;;;;;;;4993477;28;20862;-73
2023/10/14 07:36:31;;;;;;;5.80;3.63;;;;;;;;;;4993807;28;20473;-73
2023/10/14 07:41:56;;;;;;;11.60;3.47;;;;;;;;;;4949001;28;20501;-73
2023/10/14 07:44:25;;;;;;;5.97;3.33;;;;;;;;;;4992504;28;20419;-73
2023/10/14 07:46:53;;;;;;;8.30;3.17;;;;;;;;;;4992342;28;20403;-74
2023/10/14 07:49:20;;;;;;;11.57;4.27;;;;;;;;;;4974433;28;20503;-73
2023/10/14 07:51:46;;;;;;;6.10;3.03;;;;;;;;;;4992395;28;20494;-73
2023/10/14 07:54:12;;;;;;;7.40;3.20;;;;;;;;;;4992236;28;20402;-73
2023/10/14 07:56:39;;;;;;;5.00;2.80;;;;;;;;;;4992372;28;20510;-74
2023/10/14 07:59:08;;;;;;;4.50;2.80;;;;;;;;;;4991911;28;20985;-73
2023/10/14 08:01:37;;;;;;;6.30;3.10;;;;;;;;;;4991971;28;20490;-73
2023/10/14 08:04:07;;;;;;;14.20;3.53;;;;;;;;;;4992045;28;20930;-73
2023/10/14 08:06:34;;;;;;;6.67;3.70;;;;;;;;;;4986744;28;20431;-74
2023/10/14 08:09:00;;;;;;;7.40;3.00;;;;;;;;;;4972550;28;20462;-75
2023/10/14 08:11:26;;;;;;;10.43;3.67;;;;;;;;;;4972623;28;20927;-74
2023/10/14 08:13:52;;;;;;;10.63;3.50;;;;;;;;;;4972663;28;20451;-74
2023/10/14 08:16:20;;;;;;;9.73;3.40;;;;;;;;;;4972458;28;20459;-75
2023/10/14 08:18:46;;;;;;;6.87;3.03;;;;;;;;;;4972560;28;20424;-74
2023/10/14 08:21:12;;;;;;;6.37;3.43;;;;;;;;;;4973547;28;20550;-74
2023/10/14 08:23:38;;;;;;;7.33;2.97;;;;;;;;;;4972823;28;20543;-75
2023/10/14 08:26:12;;;;;;;9.40;2.80;;;;;;;;;;4972624;28;20438;-73
2023/10/14 08:28:38;;;;;;;10.87;3.10;;;;;;;;;;4955014;28;20423;-74
2023/10/14 08:31:08;;;;;;;7.97;3.00;;;;;;;;;;4972618;28;20419;-74
2023/10/14 08:33:35;;;;;;;7.60;2.33;;;;;;;;;;4972586;28;20403;-74
2023/10/14 08:36:03;;;;;;;3.83;2.50;;;;;;;;;;4989274;28;20466;-74
2023/10/14 08:38:29;;;;;;;8.90;3.03;;;;;;;;;;4991753;28;20422;-74
2023/10/14 08:40:55;;;;;;;4.50;2.57;;;;;;;;;;4991913;28;20977;-74
2023/10/14 08:43:22;;;;;;;5.47;2.40;;;;;;;;;;4991874;28;20794;-74
2023/10/14 08:45:49;;;;;;;7.00;2.30;;;;;;;;;;4991795;28;20461;-74
2023/10/14 08:48:15;;;;;;;4.70;1.93;;;;;;;;;;4991788;28;20411;-74
2023/10/14 08:50:41;;;;;;;3.90;1.73;;;;;;;;;;4991972;28;20464;-75
2023/10/14 08:53:09;;;;;;;4.80;2.13;;;;;;;;;;4991869;28;20459;-75
2023/10/14 08:55:36;;;;;;;3.37;2.20;;;;;;;;;;4991616;28;20470;-74
2023/10/14 08:58:04;;;;;;;5.93;2.30;;;;;;;;;;4991608;28;20411;-73
2023/10/14 09:00:31;;;;;;;2.67;1.63;;;;;;;;;;4993732;28;20470;-73
2023/10/14 09:03:00;;;;;;;7.57;1.97;;;;;;;;;;4995218;28;20778;-73
2023/10/14 09:05:26;;;;;;;3.83;1.90;;;;;;;;;;4995264;28;20541;-73
2023/10/14 09:07:57;;;;;;;6.47;2.17;;;;;;;;;;4994357;28;20474;-73
2023/10/14 09:10:26;;;;;;;3.30;1.80;;;;;;;;;;4994995;28;20435;-74
2023/10/14 09:13:00;;;;;;;7.90;1.00;;;;;;;;;;4995156;28;20406;-73
2023/10/14 09:15:27;;;;;;;6.00;1.50;;;;;;;;;;4994960;28;20454;-73
2023/10/14 09:17:56;;;;;;;2.43;1.13;;;;;;;;;;5001314;28;20407;-72
2023/10/14 09:20:31;;;;;;;2.07;1.40;;;;;;;;;;4999746;28;20601;-74
2023/10/14 09:23:16;;;;;;;2.27;1.50;;;;;;;;;;4997901;28;20423;-74
2023/10/14 09:25:46;;;;;;;8.93;2.33;;;;;;;;;;5001636;28;20435;-73
2023/10/14 09:28:12;;;;;;;3.70;2.00;;;;;;;;;;4995144;28;20410;-74
2023/10/14 09:30:45;;;;;;;2.13;1.60;;;;;;;;;;4995361;28;20414;-73
2023/10/14 09:33:15;;;;;;;6.60;2.27;;;;;;;;;;4995215;28;20415;-73
2023/10/14 09:35:41;;;;;;;3.00;1.77;;;;;;;;;;4997851;28;20830;-73
2023/10/14 09:38:08;;;;;;;5.00;2.40;;;;;;;;;;4994687;28;20415;-74
2023/10/14 09:40:35;;;;;;;2.50;1.90;;;;;;;;;;4994817;28;20463;-74
2023/10/14 09:43:02;;;;;;;2.67;1.70;;;;;;;;;;4994371;28;20439;-74
2023/10/14 09:45:28;;;;;;;4.50;2.10;;;;;;;;;;4995596;28;20423;-73
2023/10/14 09:47:57;;;;;;;3.57;2.30;;;;;;;;;;4995111;28;20418;-73
2023/10/14 09:50:23;;;;;;;3.00;2.33;;;;;;;;;;4994183;28;20427;-73
2023/10/14 09:52:52;;;;;;;3.57;2.47;;;;;;;;;;4994552;28;20825;-73
2023/10/14 09:55:20;;;;;;;3.37;2.43;;;;;;;;;;4994457;28;20438;-73
2023/10/14 09:57:46;;;;;;;5.03;3.23;;;;;;;;;;4994191;28;20419;-73
2023/10/14 10:00:16;;;;;;;2.63;2.40;;;;;;;;;;4994356;28;20823;-74
2023/10/14 10:02:46;;;;;;;3.80;2.73;;;;;;;;;;4994264;28;20914;-73
2023/10/14 10:05:16;;;;;;;3.73;2.00;;;;;;;;;;4994320;28;20432;-73
2023/10/14 10:07:55;;;;;;;2.57;2.37;;;;;;;;;;4994127;28;20462;-73
2023/10/14 10:10:26;;;;;;;4.00;2.40;;;;;;;;;;4993962;28;20415;-73
2023/10/14 10:12:55;;;;;;;2.00;1.67;;;;;;;;;;4994516;28;20411;-74
2023/10/14 10:15:23;;;;;;;2.20;1.70;;;;;;;;;;4993922;28;20468;-74
2023/10/14 10:17:56;;;;;;;1.67;1.47;;;;;;;;;;4993950;28;20419;-74
2023/10/14 10:20:27;;;;;;;2.40;1.77;;;;;;;;;;4993277;28;20419;-74
2023/10/14 10:22:55;;;;;;;1.90;1.53;;;;;;;;;;4994088;28;20481;-74
2023/10/14 10:25:47;;;;;;;1.50;1.40;;;;;;;;;;4993846;28;20449;-74
2023/10/14 10:28:28;;;;;;;1.80;1.70;;;;;;;;;;4993839;28;20406;-74
2023/10/14 10:30:58;;;;;;;1.27;1.20;;;;;;;;;;4993754;28;20481;-74
2023/10/14 10:33:45;;;;;;;2.80;1.50;;;;;;;;;;4993677;28;20422;-74
2023/10/14 10:36:12;;;;;;;4.47;1.37;;;;;;;;;;4993665;28;20426;-74
2023/10/14 10:38:38;;;;;;;1.43;1.30;;;;;;;;;;4993465;28;20415;-74
2023/10/14 10:41:24;;;;;;;1.93;1.40;;;;;;;;;;4994203;28;20536;-74
2023/10/14 10:43:50;;;;;;;3.60;1.60;;;;;;;;;;4994032;28;20403;-74
2023/10/14 10:46:39;;;;;;;2.80;1.60;;;;;;;;;;4993788;28;20835;-75
2023/10/14 10:49:06;;;;;;;2.30;1.60;;;;;;;;;;4993072;28;20422;-75
2023/10/14 10:51:33;;;;;;;4.40;1.90;;;;;;;;;;4993668;28;20411;-75
2023/10/14 10:54:02;;;;;;;2.07;1.53;;;;;;;;;;4993489;28;20477;-75
2023/10/14 10:56:33;;;;;;;1.77;1.63;;;;;;;;;;4993184;28;20407;-73
2023/10/14 10:59:01;;;;;;;2.03;1.73;;;;;;;;;;4993333;28;20845;-73
2023/10/14 11:01:31;;;;;;;2.40;2.00;;;;;;;;;;4992838;28;20557;-73
2023/10/14 11:03:58;;;;;;;5.63;2.60;;;;;;;;;;4974083;28;20491;-74
2023/10/14 11:06:25;;;;;;;2.00;1.70;;;;;;;;;;4973814;28;20457;-74
2023/10/14 11:08:52;;;;;;;1.93;1.60;;;;;;;;;;4973544;28;20404;-74
2023/10/14 11:11:18;;;;;;;1.60;1.57;;;;;;;;;;4973776;28;20419;-75
2023/10/14 11:13:46;;;;;;;1.53;1.43;;;;;;;;;;4956528;28;20432;-75
2023/10/14 11:16:12;;;;;;;6.10;2.87;;;;;;;;;;4979748;28;20465;-74
2023/10/14 11:18:50;;;;;;;2.80;1.50;;;;;;;;;;4993996;28;20502;-75
2023/10/14 11:21:17;;;;;;;4.33;1.90;;;;;;;;;;4993358;28;20490;-74
2023/10/14 11:23:43;;;;;;;1.60;1.50;;;;;;;;;;4992478;28;20418;-74
2023/10/14 11:26:15;;;;;;;3.00;1.57;;;;;;;;;;4993051;28;20450;-75
2023/10/14 11:28:45;;;;;;;4.60;1.77;;;;;;;;;;4993242;28;20414;-74
2023/10/14 11:31:11;;;;;;;1.60;1.50;;;;;;;;;;4992950;28;20445;-75
2023/10/14 11:33:37;;;;;;;2.60;1.57;;;;;;;;;;4993129;28;20437;-75
2023/10/14 11:36:03;;;;;;;7.37;1.80;;;;;;;;;;4992889;28;20934;-75
2023/10/14 11:38:32;;;;;;;2.70;1.70;;;;;;;;;;4992730;28;20490;-75
2023/10/14 11:40:59;;;;;;;4.57;1.90;;;;;;;;;;4992415;28;20565;-75
2023/10/14 11:43:26;;;;;;;2.10;1.73;;;;;;;;;;4993204;28;20531;-74
2023/10/14 11:45:55;;;;;;;2.00;1.90;;;;;;;;;;4992667;28;20522;-75
2023/10/14 11:48:28;;;;;;;3.77;2.10;;;;;;;;;;4992657;28;20778;-75
2023/10/14 11:50:55;;;;;;;3.07;2.07;;;;;;;;;;4992847;28;20406;-74
2023/10/14 11:53:28;;;;;;;3.00;2.07;;;;;;;;;;4992741;28;20941;-76
2023/10/14 11:55:58;;;;;;;4.10;2.10;;;;;;;;;;4992526;28;20415;-74
2023/10/14 11:58:24;;;;;;;4.23;2.60;;;;;;;;;;4992629;28;20881;-75
2023/10/14 12:00:50;;;;;;;2.70;2.13;;;;;;;;;;4993137;28;20470;-74
2023/10/14 12:03:17;;;;;;;4.33;2.40;;;;;;;;;;4992665;28;20418;-75
2023/10/14 12:05:43;;;;;;;2.40;1.87;;;;;;;;;;4992566;28;20458;-75
2023/10/14 12:08:09;;;;;;;5.50;2.27;;;;;;;;;;4992420;28;20777;-76
2023/10/14 12:10:35;;;;;;;2.40;2.20;;;;;;;;;;4992513;28;20415;-74
2023/10/14 12:13:03;;;;;;;3.20;2.07;;;;;;;;;;4992233;28;20427;-75
2023/10/14 12:15:35;;;;;;;2.10;1.60;;;;;;;;;;4992167;28;20485;-75
2023/10/14 12:18:01;;;;;;;5.60;2.60;;;;;;;;;;4992226;28;20907;-75
2023/10/14 12:20:29;;;;;;;4.67;2.07;;;;;;;;;;4992292;28;20415;-74
2023/10/14 12:22:55;;;;;;;3.50;2.00;;;;;;;;;;4992238;28;20437;-74
2023/10/14 12:25:21;;;;;;;6.23;2.33;;;;;;;;;;4992238;28;20946;-74
2023/10/14 12:27:48;;;;;;;6.00;2.50;;;;;;;;;;4992373;28;20415;-76
2023/10/14 12:33:19;;;;;;;3.70;2.00;;;;;;;;;;4913174;29;21114;-74
2023/10/14 12:35:45;;;;;;;7.10;2.67;;;;;;;;;;4981495;28;20449;-74
2023/10/14 12:38:15;;;;;;;3.43;1.87;;;;;;;;;;4996106;28;20911;-74
2023/10/14 12:40:43;;;;;;;2.00;1.77;;;;;;;;;;4995764;28;20549;-75
2023/10/14 12:43:09;;;;;;;4.83;1.90;;;;;;;;;;4996626;28;20778;-75
2023/10/14 12:45:36;;;;;;;3.03;1.97;;;;;;;;;;4996446;28;20435;-74
2023/10/14 12:48:12;;;;;;;2.50;1.80;;;;;;;;;;4996489;28;20746;-75
2023/10/14 12:50:41;;;;;;;2.70;2.10;;;;;;;;;;4996057;28;20441;-75
2023/10/14 12:53:12;;;;;;;5.20;2.37;;;;;;;;;;4995831;28;20410;-75
2023/10/14 12:55:44;;;;;;;2.00;1.80;;;;;;;;;;4995643;28;20423;-75
2023/10/14 12:58:15;;;;;;;3.07;2.37;;;;;;;;;;4994965;28;20407;-74
2023/10/14 13:00:45;;;;;;;3.80;2.00;;;;;;;;;;4995387;28;20477;-74
2023/10/14 13:03:11;;;;;;;3.67;2.10;;;;;;;;;;4996900;28;20438;-75
2023/10/14 13:05:46;;;;;;;2.63;1.63;;;;;;;;;;4999908;28;20422;-74
2023/10/14 13:08:18;;;;;;;3.43;2.20;;;;;;;;;;5000205;28;20407;-73
2023/10/14 13:10:45;;;;;;;3.90;2.37;;;;;;;;;;5009591;28;20407;-74
2023/10/14 13:13:12;;;;;;;4.20;1.67;;;;;;;;;;5015673;28;20430;-76
2023/10/14 13:15:38;;;;;;;1.77;1.70;;;;;;;;;;4983721;28;20876;-74
2023/10/14 13:18:05;;;;;;;2.80;1.83;;;;;;;;;;4994947;28;20414;-75
2023/10/14 13:20:32;;;;;;;5.33;1.70;;;;;;;;;;4994914;28;20411;-75
2023/10/14 13:23:03;;;;;;;1.90;1.83;;;;;;;;;;4995260;28;20462;-74
2023/10/14 13:25:30;;;;;;;2.23;1.70;;;;;;;;;;4977686;28;20806;-74
2023/10/14 13:27:56;;;;;;;1.70;1.57;;;;;;;;;;4994685;28;20426;-74
2023/10/14 13:30:22;;;;;;;3.03;1.90;;;;;;;;;;4995248;28;20485;-74
2023/10/14 13:32:53;;;;;;;2.40;1.60;;;;;;;;;;4995077;28;20407;-73
2023/10/14 13:35:19;;;;;;;1.33;1.27;;;;;;;;;;4995520;28;20438;-73
2023/10/14 13:37:45;;;;;;;2.87;1.60;;;;;;;;;;4995982;28;20411;-74
2023/10/14 13:40:11;;;;;;;3.00;1.90;;;;;;;;;;4995907;28;20507;-74
2023/10/14 13:42:37;;;;;;;1.57;1.53;;;;;;;;;;4994707;28;20466;-74
2023/10/14 13:45:12;;;;;;;4.10;2.00;;;;;;;;;;4994302;28;20833;-75
2023/10/14 13:47:38;;;;;;;2.60;1.50;;;;;;;;;;4994330;28;20410;-75
2023/10/14 13:50:04;;;;;;;2.37;2.20;;;;;;;;;;4994493;28;20466;-75
2023/10/14 13:52:32;;;;;;;2.43;1.80;;;;;;;;;;4994266;28;20427;-74
2023/10/14 13:54:59;;;;;;;3.50;1.80;;;;;;;;;;4994375;28;20427;-74
2023/10/14 13:57:25;;;;;;;2.43;1.80;;;;;;;;;;4995096;28;20777;-75
2023/10/14 13:59:53;;;;;;;2.50;1.60;;;;;;;;;;4995711;28;20411;-74
2023/10/14 14:02:19;;;;;;;2.50;1.63;;;;;;;;;;4994339;28;20520;-75
2023/10/14 14:04:45;;;;;;;1.83;1.67;;;;;;;;;;4994529;28;20518;-73
2023/10/14 14:07:13;;;;;;;4.40;1.90;;;;;;;;;;4994078;28;20423;-75
2023/10/14 14:09:40;;;;;;;3.47;1.73;;;;;;;;;;4994588;28;20412;-73
2023/10/14 14:12:07;;;;;;;2.80;1.77;;;;;;;;;;4994584;28;20487;-73
2023/10/14 14:14:36;;;;;;;2.57;1.80;;;;;;;;;;4994186;28;20562;-73
2023/10/14 14:17:03;;;;;;;2.30;1.80;;;;;;;;;;4994271;28;20425;-73
2023/10/14 14:19:29;;;;;;;2.00;1.83;;;;;;;;;;4993913;28;20489;-73
2023/10/14 14:21:55;;;;;;;2.40;1.73;;;;;;;;;;4996239;28;20458;-73
2023/10/14 14:24:23;;;;;;;3.60;2.00;;;;;;;;;;4994576;28;20411;-73
2023/10/14 14:26:50;;;;;;;3.97;2.10;;;;;;;;;;4995584;28;20411;-73
2023/10/14 14:29:16;;;;;;;3.10;1.97;;;;;;;;;;4995723;28;20442;-73
2023/10/14 14:31:41;;;;;;;4.50;2.80;;;;;;;;;;4995007;28;20423;-72
2023/10/14 14:34:09;;;;;;;5.90;2.40;;;;;;;;;;4995236;28;20419;-72
2023/10/14 14:36:34;;;;;;;3.63;2.40;;;;;;;;;;4994319;28;20407;-72
2023/10/14 14:39:02;;;;;;;6.60;3.50;;;;;;;;;;4994675;28;20417;-72
2023/10/14 14:41:28;;;;;;;4.07;2.83;;;;;;;;;;4994297;28;20458;-72
2023/10/14 14:43:55;;;;;;;4.57;2.20;;;;;;;;;;4994088;28;20497;-72
2023/10/14 14:46:21;;;;;;;7.80;2.47;;;;;;;;;;4993894;28;20438;-72
2023/10/14 14:48:50;;;;;;;5.37;2.60;;;;;;;;;;4994527;28;20914;-72
2023/10/14 14:51:17;;;;;;;4.90;1.90;;;;;;;;;;4993537;28;20422;-73
2023/10/14 14:53:44;;;;;;;3.87;1.97;;;;;;;;;;4993706;28;20424;-72
2023/10/14 14:56:11;;;;;;;3.67;2.27;;;;;;;;;;4993112;28;20441;-74
2023/10/14 14:58:37;;;;;;;8.63;2.57;;;;;;;;;;4992610;28;20418;-73
2023/10/14 15:01:04;;;;;;;2.90;2.20;;;;;;;;;;4993415;28;20494;-73
2023/10/14 15:03:29;;;;;;;6.40;2.50;;;;;;;;;;4993193;28;20415;-73
2023/10/14 15:05:56;;;;;;;6.53;2.83;;;;;;;;;;4992576;28;20889;-73
2023/10/14 15:08:23;;;;;;;5.80;2.57;;;;;;;;;;4992802;28;20414;-73
2023/10/14 15:10:50;;;;;;;7.23;2.80;;;;;;;;;;4992906;28;20792;-73
2023/10/14 15:13:17;;;;;;;12.37;3.23;;;;;;;;;;4992360;28;20426;-73
2023/10/14 15:15:43;;;;;;;5.90;2.87;;;;;;;;;;4992506;28;20469;-73
2023/10/14 15:18:10;;;;;;;11.93;2.90;;;;;;;;;;4992748;28;20407;-74
2023/10/14 15:20:36;;;;;;;7.70;3.40;;;;;;;;;;4992781;28;22357;-73
2023/10/14 15:23:03;;;;;;;6.57;2.60;;;;;;;;;;4992989;28;20442;-73
2023/10/14 15:25:34;;;;;;;7.60;2.90;;;;;;;;;;4992716;28;20434;-72
2023/10/14 15:27:59;;;;;;;9.20;3.03;;;;;;;;;;4992978;28;20411;-72
2023/10/14 15:30:28;;;;;;;7.33;3.20;;;;;;;;;;4992957;28;20415;-72
2023/10/14 15:32:58;;;;;;;12.70;4.60;;;;;;;;;;4993149;28;20418;-73
2023/10/14 15:35:27;;;;;;;8.63;3.57;;;;;;;;;;4992717;28;20462;-73
2023/10/14 15:37:54;;;;;;;8.43;3.40;;;;;;;;;;4992728;28;20415;-73
2023/10/14 15:40:23;;;;;;;10.43;3.07;;;;;;;;;;4992920;28;20411;-73
2023/10/14 15:42:50;;;;;;;12.60;3.50;;;;;;;;;;4992733;28;20425;-74
2023/10/14 15:45:25;;;;;;;11.73;3.57;;;;;;;;;;4992712;28;20940;-72
2023/10/14 15:47:51;;;;;;;9.83;3.23;;;;;;;;;;4992693;28;20402;-72
2023/10/14 15:50:18;;;;;;;8.47;3.10;;;;;;;;;;4992996;28;20403;-72
2023/10/14 15:52:45;;;;;;;9.30;3.77;;;;;;;;;;4993007;28;20414;-72
2023/10/14 15:55:11;;;;;;;8.67;3.93;;;;;;;;;;4992408;28;20434;-71
2023/10/14 15:57:38;;;;;;;8.60;3.20;;;;;;;;;;4991954;28;20945;-72
2023/10/14 16:00:09;;;;;;;9.23;3.77;;;;;;;;;;4992509;28;20816;-71
2023/10/14 16:02:35;;;;;;;7.60;3.67;;;;;;;;;;4992495;28;20478;-72
2023/10/14 16:05:02;;;;;;;9.87;3.13;;;;;;;;;;4992247;28;20439;-71
2023/10/14 16:07:28;;;;;;;10.17;4.63;;;;;;;;;;4992656;28;20403;-73
2023/10/14 16:09:54;;;;;;;10.67;3.10;;;;;;;;;;4994764;28;20414;-72
2023/10/14 16:12:20;;;;;;;12.37;3.20;;;;;;;;;;4996057;28;20458;-73
2023/10/14 16:14:47;;;;;;;15.03;4.00;;;;;;;;;;4996278;28;20462;-73
2023/10/14 16:17:16;;;;;;;12.40;3.33;;;;;;;;;;4996065;28;20418;-73
2023/10/14 16:19:42;;;;;;;11.53;3.17;;;;;;;;;;4996443;28;20421;-73
2023/10/14 16:22:08;;;;;;;17.63;4.40;;;;;;;;;;4995670;28;20466;-73
2023/10/14 16:24:34;;;;;;;7.30;3.90;;;;;;;;;;4995873;28;20438;-73
2023/10/14 16:27:00;;;;;;;9.33;3.83;;;;;;;;;;4995894;28;20449;-72
2023/10/14 16:29:27;;;;;;;6.33;3.23;;;;;;;;;;4995790;28;20449;-73
2023/10/14 16:31:54;;;;;;;8.80;3.03;;;;;;;;;;4995778;28;20498;-73
2023/10/14 16:34:25;;;;;;;7.27;3.27;;;;;;;;;;4996014;28;20801;-72
2023/10/14 16:36:52;;;;;;;8.73;3.80;;;;;;;;;;4995858;28;20411;-73
2023/10/14 16:39:18;;;;;;;12.60;4.70;;;;;;;;;;4995459;28;20491;-71
2023/10/14 16:41:44;;;;;;;5.07;3.10;;;;;;;;;;4995851;28;20965;-72
2023/10/14 16:44:11;;;;;;;9.93;3.60;;;;;;;;;;4995727;28;20928;-73
2023/10/14 16:46:38;;;;;;;12.67;4.00;;;;;;;;;;4995592;28;20715;-72
2023/10/14 16:49:05;;;;;;;12.37;4.47;;;;;;;;;;4995493;28;20411;-72
2023/10/14 16:51:31;;;;;;;10.37;3.90;;;;;;;;;;4995701;28;20427;-73
2023/10/14 16:53:57;;;;;;;11.83;4.57;;;;;;;;;;4995707;28;20411;-71
2023/10/14 16:56:24;;;;;;;6.80;3.77;;;;;;;;;;4995573;28;20941;-72
2023/10/14 16:58:51;;;;;;;10.07;3.50;;;;;;;;;;4995316;28;20411;-73
2023/10/14 17:01:17;;;;;;;9.83;3.60;;;;;;;;;;4995552;28;20466;-72
2023/10/14 17:03:44;;;;;;;7.83;3.50;;;;;;;;;;4995487;28;20450;-73
2023/10/14 17:06:10;;;;;;;12.30;3.20;;;;;;;;;;4977715;28;20933;-71
2023/10/14 17:08:36;;;;;;;6.37;3.10;;;;;;;;;;4995294;28;20766;-73
2023/10/14 17:11:05;;;;;;;14.53;4.80;;;;;;;;;;4995098;28;20911;-73
2023/10/14 17:13:32;;;;;;;8.73;3.70;;;;;;;;;;4995241;28;20426;-73
2023/10/14 17:15:58;;;;;;;14.30;4.60;;;;;;;;;;4995064;28;20486;-73
2023/10/14 17:18:25;;;;;;;7.20;4.37;;;;;;;;;;4994845;28;20968;-71
2023/10/14 17:20:52;;;;;;;11.63;3.50;;;;;;;;;;4994139;28;20554;-72
2023/10/14 17:23:18;;;;;;;9.43;4.07;;;;;;;;;;4995148;28;20419;-71
2023/10/14 17:25:44;;;;;;;9.70;4.00;;;;;;;;;;4994611;28;20450;-72
2023/10/14 17:28:11;;;;;;;8.90;3.40;;;;;;;;;;4994585;28;20422;-72
2023/10/14 17:30:40;;;;;;;9.90;2.93;;;;;;;;;;4995105;28;20407;-71
2023/10/14 17:33:07;;;;;;;10.57;3.43;;;;;;;;;;4995150;28;20454;-71
2023/10/14 17:35:33;;;;;;;8.37;3.60;;;;;;;;;;4977412;28;20513;-72
2023/10/14 17:38:04;;;;;;;6.87;3.97;;;;;;;;;;4994758;28;20427;-72
2023/10/14 17:40:32;;;;;;;4.97;3.40;;;;;;;;;;4995001;28;20818;-71
2023/10/14 17:43:05;;;;;;;9.60;4.63;;;;;;;;;;4978203;28;20878;-71
2023/10/14 17:45:32;;;;;;;12.23;4.00;;;;;;;;;;4994970;28;20435;-73
2023/10/14 17:47:59;;;;;;;13.43;4.30;;;;;;;;;;4994553;28;20431;-71
2023/10/14 17:50:27;;;;;;;8.33;4.23;;;;;;;;;;4994509;28;20423;-72
2023/10/14 17:52:56;;;;;;;7.83;3.70;;;;;;;;;;4994754;28;20494;-73
2023/10/14 17:55:23;;;;;;;7.53;4.50;;;;;;;;;;4995368;28;20921;-71
2023/10/14 17:57:50;;;;;;;8.20;3.20;;;;;;;;;;4977103;28;20446;-71
2023/10/14 18:00:26;;;;;;;18.10;5.63;;;;;;;;;;4994755;28;20463;-74
2023/10/14 18:02:56;;;;;;;14.60;4.03;;;;;;;;;;4995041;28;20442;-72
2023/10/14 18:05:25;;;;;;;9.10;3.80;;;;;;;;;;4994717;28;20456;-72
2023/10/14 18:07:52;;;;;;;10.10;3.10;;;;;;;;;;4994602;28;20488;-71
2023/10/14 18:10:18;;;;;;;10.73;3.77;;;;;;;;;;4994773;28;20899;-73
2023/10/14 18:12:44;;;;;;;9.40;3.57;;;;;;;;;;4994651;28;20562;-73
2023/10/14 18:15:14;;;;;;;6.10;3.27;;;;;;;;;;4994663;28;20478;-72
2023/10/14 18:17:43;;;;;;;12.40;4.03;;;;;;;;;;4994552;28;20407;-73
2023/10/14 18:20:14;;;;;;;23.33;4.63;;;;;;;;;;4994849;28;20438;-71
2023/10/14 18:22:41;;;;;;;10.90;5.00;;;;;;;;;;4994110;28;20467;-73
2023/10/14 18:25:09;;;;;;;13.13;4.77;;;;;;;;;;4994510;28;20810;-72
2023/10/14 18:27:35;;;;;;;6.90;3.90;;;;;;;;;;4994000;28;20418;-72
2023/10/14 18:30:01;;;;;;;13.67;4.70;;;;;;;;;;4994166;28;20856;-73
2023/10/14 18:32:31;;;;;;;9.37;3.90;;;;;;;;;;4976293;28;20419;-73
2023/10/14 18:34:57;;;;;;;9.43;3.60;;;;;;;;;;4994751;28;20451;-72
2023/10/14 18:37:23;;;;;;;12.13;4.23;;;;;;;;;;4994867;28;20510;-71
2023/10/14 18:39:49;;;;;;;9.30;3.97;;;;;;;;;;4993948;28;20922;-72
2023/10/14 18:42:15;;;;;;;12.10;3.67;;;;;;;;;;4976377;28;20513;-73
2023/10/14 18:44:44;;;;;;;11.57;4.13;;;;;;;;;;4993739;28;20462;-72
2023/10/14 18:47:10;;;;;;;8.67;3.80;;;;;;;;;;4993241;28;20454;-71
2023/10/14 18:49:36;;;;;;;10.97;3.70;;;;;;;;;;4993227;28;20434;-73
2023/10/14 18:52:06;;;;;;;11.60;4.60;;;;;;;;;;4993420;28;20411;-73
2023/10/14 18:54:32;;;;;;;14.67;4.53;;;;;;;;;;4993771;28;20443;-73
2023/10/14 18:56:58;;;;;;;11.23;4.47;;;;;;;;;;4993294;28;20561;-73
2023/10/14 18:59:26;;;;;;;4.77;2.90;;;;;;;;;;4993444;28;20426;-72
2023/10/14 19:01:52;;;;;;;7.80;3.40;;;;;;;;;;4993345;28;20459;-72
2023/10/14 19:04:18;;;;;;;13.27;3.10;;;;;;;;;;4975752;28;20419;-72
2023/10/14 19:06:44;;;;;;;18.03;3.40;;;;;;;;;;4993596;28;20425;-72
2023/10/14 19:09:10;;;;;;;7.00;3.40;;;;;;;;;;4993317;28;20419;-72
2023/10/14 19:11:36;;;;;;;9.90;3.60;;;;;;;;;;4992746;28;20450;-73
2023/10/14 19:14:03;;;;;;;5.70;2.73;;;;;;;;;;4993278;28;20499;-73
2023/10/14 19:16:30;;;;;;;6.63;3.33;;;;;;;;;;4992869;28;21009;-73
2023/10/14 19:18:56;;;;;;;6.30;3.33;;;;;;;;;;4993237;28;20430;-72
2023/10/14 19:21:22;;;;;;;13.27;3.90;;;;;;;;;;4993773;28;20466;-73
2023/10/14 19:23:48;;;;;;;7.97;3.07;;;;;;;;;;4992833;28;20433;-72
2023/10/14 19:26:15;;;;;;;7.90;3.93;;;;;;;;;;4993075;28;20522;-73
2023/10/14 19:28:41;;;;;;;7.00;3.10;;;;;;;;;;4992818;28;20434;-74
2023/10/14 19:31:10;;;;;;;10.70;3.70;;;;;;;;;;4992793;28;20411;-74
2023/10/14 19:33:36;;;;;;;12.10;3.57;;;;;;;;;;4992992;28;20444;-72
2023/10/14 19:36:04;;;;;;;14.57;3.63;;;;;;;;;;4992665;28;20450;-72
2023/10/14 19:38:31;;;;;;;8.13;2.80;;;;;;;;;;4992606;28;20914;-72
2023/10/14 19:41:04;;;;;;;7.50;3.20;;;;;;;;;;4992822;28;20458;-73
2023/10/14 19:43:32;;;;;;;13.60;3.57;;;;;;;;;;4992087;28;20404;-72
2023/10/14 19:46:00;;;;;;;7.07;2.77;;;;;;;;;;4992384;28;20474;-73
2023/10/14 19:48:27;;;;;;;7.80;2.50;;;;;;;;;;4992440;28;20426;-73
2023/10/14 19:50:53;;;;;;;11.10;3.13;;;;;;;;;;4992703;28;20926;-72